createdAt,value
2023-10-24T00:03:36.612Z,97938.6
2023-10-24T00:09:11.797Z,97946.8
2023-10-24T00:14:47.656Z,97957
2023-10-24T00:20:23.286Z,97962.4
2023-10-24T00:25:59.158Z,97952.1
2023-10-24T00:31:35.357Z,97953.8
2023-10-24T00:37:11.647Z,97954.2
2023-10-24T00:42:47.208Z,97950.9
2023-10-24T00:48:22.828Z,97959.7
2023-10-24T00:53:58.270Z,97955.1
2023-10-24T00:59:33.574Z,97961.2
2023-10-24T01:05:08.773Z,97961.5
2023-10-24T01:10:45.088Z,97963.3
2023-10-24T01:16:21.034Z,97960.7
2023-10-24T01:21:57.889Z,97969.2
2023-10-24T01:27:33.861Z,97980.5
2023-10-24T01:33:09.584Z,97987.3
2023-10-24T01:38:45.414Z,97990.5
2023-10-24T01:44:21.275Z,97992.5
2023-10-24T01:49:55.998Z,97988.9
2023-10-24T01:55:31.720Z,97991.7
2023-10-24T02:01:08.034Z,97993
2023-10-24T02:06:45.093Z,97996.9
2023-10-24T02:12:20.372Z,97996.2
2023-10-24T02:17:56.264Z,97999.1
2023-10-24T02:23:31.588Z,98003.5
2023-10-24T02:29:06.983Z,98009.2
2023-10-24T02:34:44.380Z,98008.9
2023-10-24T02:40:20.636Z,98006.3
2023-10-24T02:45:56.490Z,98006.5
2023-10-24T02:51:32.804Z,98011.3
2023-10-24T02:57:08.432Z,98014.4
2023-10-24T03:02:43.886Z,98027.8
2023-10-24T03:08:19.440Z,98032.3
2023-10-24T03:13:54.904Z,98027.7
2023-10-24T03:19:31.365Z,98030.7
2023-10-24T03:25:07.469Z,98025.1
2023-10-24T03:30:42.962Z,98025.9
2023-10-24T03:36:18.957Z,98024
2023-10-24T03:41:55.195Z,98024.2
2023-10-24T03:47:31.101Z,98026.7
2023-10-24T03:53:07.542Z,98030
2023-10-24T03:58:43.708Z,98033.3
2023-10-24T04:04:19.483Z,98034.3
2023-10-24T04:09:54.702Z,98033.4
2023-10-24T04:15:30.173Z,98030.7
2023-10-24T04:21:06.061Z,98026.7
2023-10-24T04:26:41.492Z,98025.1
2023-10-24T04:32:17.191Z,98027.3
2023-10-24T04:37:52.471Z,98042.5
2023-10-24T04:43:28.281Z,98042.5
2023-10-24T04:49:04.326Z,98037.8
2023-10-24T04:54:39.829Z,98036.1
2023-10-24T05:00:16.305Z,98028.5
2023-10-24T05:05:51.730Z,98021.4
2023-10-24T05:11:26.900Z,98018.6
2023-10-24T05:17:02.334Z,98026.1
2023-10-24T05:22:39.386Z,98023.9
2023-10-24T05:28:15.450Z,98015.4
2023-10-24T05:33:51.852Z,98017.9
2023-10-24T05:39:27.922Z,98012.3
2023-10-24T05:45:03.638Z,98003.5
2023-10-24T05:50:39.634Z,97990.9
2023-10-24T05:56:15.653Z,97985.3
2023-10-24T06:01:52.993Z,97985.6
2023-10-24T06:07:29.722Z,97983.5
2023-10-24T06:13:05.542Z,97980.3
2023-10-24T06:18:41.052Z,97980
2023-10-24T06:24:16.451Z,97984.9
2023-10-24T06:29:52.457Z,97981.3
2023-10-24T06:35:28.081Z,97981.6
2023-10-24T06:41:03.536Z,97983.6
2023-10-24T06:46:39.182Z,97992.6
2023-10-24T06:52:15.031Z,97994.9
2023-10-24T06:57:50.154Z,97999.4
2023-10-24T07:03:26.127Z,98001.3
2023-10-24T07:09:02.375Z,98002.9
2023-10-24T07:14:37.758Z,98004.6
2023-10-24T07:20:13.432Z,98004.8
2023-10-24T07:25:49.600Z,98002.9
2023-10-24T07:31:26.536Z,97995
2023-10-24T07:37:02.531Z,98005
2023-10-24T07:42:38.049Z,98018.5
2023-10-24T07:48:14.333Z,98016.1
2023-10-24T07:53:50.619Z,98013.1
2023-10-24T07:59:25.769Z,98022.5
2023-10-24T08:05:01.744Z,98025.4
2023-10-24T08:10:38.682Z,98024
2023-10-24T08:16:14.553Z,98015.1
2023-10-24T08:21:50.244Z,98011.8
2023-10-24T08:27:26.818Z,98011.7
2023-10-24T08:33:02.349Z,98011.3
2023-10-24T08:38:38.616Z,98009.2
2023-10-24T08:44:14.336Z,98013.3
2023-10-24T08:49:49.608Z,98009.6
2023-10-24T08:55:26.652Z,98005.3
2023-10-24T09:01:03.092Z,98012.5
2023-10-24T09:06:39.288Z,98007.5
2023-10-24T09:12:15.300Z,98008.2
2023-10-24T09:17:52.592Z,98004
2023-10-24T09:23:29.815Z,98000
2023-10-24T09:29:05.542Z,97996.8
2023-10-24T09:34:42.267Z,97988.8
2023-10-24T09:40:18.759Z,97980.2
2023-10-24T09:45:54.254Z,97975.1
2023-10-24T09:51:30.708Z,97972.8
2023-10-24T09:57:06.002Z,97966
2023-10-24T10:02:42.033Z,97955.9
2023-10-24T10:08:19.948Z,97962.8
2023-10-24T10:13:55.662Z,97964.6
2023-10-24T10:19:31.712Z,97953.6
2023-10-24T10:25:07.530Z,97945
2023-10-24T10:32:53.631Z,97944.7
2023-10-24T10:38:51.341Z,97940.8
2023-10-24T10:44:26.602Z,97928.7
2023-10-24T10:50:02.001Z,97921
2023-10-24T10:55:38.045Z,97917
2023-10-24T11:01:13.544Z,97910.2
2023-10-24T11:06:49.210Z,97911.8
2023-10-24T11:12:24.855Z,97901.3
2023-10-24T11:18:00.479Z,97889.1
2023-10-24T11:23:36.540Z,97872.6
2023-10-24T11:29:12.325Z,97872.4
2023-10-24T11:34:48.372Z,97866
2023-10-24T11:40:24.161Z,97864.4
2023-10-24T11:46:00.316Z,97841.8
2023-10-24T11:51:37.227Z,97820.7
2023-10-24T11:57:12.755Z,97814.4
2023-10-24T12:02:48.366Z,97799.1
2023-10-24T12:08:25.289Z,97793.4
2023-10-24T12:14:01.111Z,97785.2
2023-10-24T12:19:39.431Z,97786.8
2023-10-24T12:25:21.464Z,97777.4
2023-10-24T12:30:59.466Z,97766.3
2023-10-24T12:36:35.912Z,97759.8
2023-10-24T12:42:11.922Z,97747.2
2023-10-24T12:47:47.490Z,97741.3
2023-10-24T12:53:23.508Z,97731.2
2023-10-24T12:58:59.147Z,97717.7
2023-10-24T13:04:35.040Z,97723.3
2023-10-24T13:10:10.835Z,97727.4
2023-10-24T13:15:46.925Z,97717.8
2023-10-24T13:21:23.265Z,97718.1
2023-10-24T13:26:58.457Z,97714
2023-10-24T13:32:35.625Z,97717.7
2023-10-24T13:38:12.768Z,97711.6
2023-10-24T13:43:48.543Z,97697.4
2023-10-24T13:49:24.447Z,97694.6
2023-10-24T13:54:59.403Z,97698.1
2023-10-24T14:00:34.969Z,97689.8
2023-10-24T14:06:10.951Z,97690.5
2023-10-24T14:11:46.876Z,97686.7
2023-10-24T14:17:22.000Z,97684.8
2023-10-24T14:22:57.844Z,97680.9
2023-10-24T14:28:33.940Z,97681.4
2023-10-24T14:34:09.706Z,97683
2023-10-24T14:39:44.847Z,97659.6
2023-10-24T14:45:21.741Z,97665.8
2023-10-24T14:50:57.049Z,97651.1
2023-10-24T14:56:32.473Z,97636.7
2023-10-24T15:02:07.964Z,97633.7
2023-10-24T15:07:44.059Z,97629.9
2023-10-24T15:13:19.888Z,97621.6
2023-10-24T15:18:54.813Z,97611.3
2023-10-24T15:24:29.945Z,97617
2023-10-24T15:30:05.283Z,97615
2023-10-24T15:35:40.970Z,97617.2
2023-10-24T15:41:16.617Z,97616.1
2023-10-24T15:46:53.899Z,97610.6
2023-10-24T15:52:29.308Z,97616.9
2023-10-24T15:58:07.472Z,97613.9
2023-10-24T16:03:43.529Z,97612.8
2023-10-24T16:09:20.211Z,97605.3
2023-10-24T16:14:55.213Z,97598.7
2023-10-24T16:20:31.224Z,97590.5
2023-10-24T16:26:06.392Z,97584.1
2023-10-24T16:31:42.794Z,97582.6
2023-10-24T16:37:19.125Z,97579.8
2023-10-24T16:42:54.465Z,97593.4
2023-10-24T16:48:30.043Z,97575.2
2023-10-24T16:54:05.469Z,97580.2
2023-10-24T16:59:40.323Z,97577.5
2023-10-24T17:05:16.635Z,97576.7
2023-10-24T17:10:52.840Z,97574.3
2023-10-24T17:16:29.259Z,97572.5
2023-10-24T17:22:06.678Z,97575
2023-10-24T17:27:42.374Z,97576.2
2023-10-24T17:33:18.370Z,97569.4
2023-10-24T17:38:53.803Z,97579.2
2023-10-24T17:44:29.413Z,97586.7
2023-10-24T17:50:04.744Z,97587
2023-10-24T17:55:42.415Z,97589.3
2023-10-24T18:01:19.175Z,97582.1
2023-10-24T18:06:54.222Z,97590.3
2023-10-24T18:12:29.524Z,97580
2023-10-24T18:18:06.362Z,97579.1
2023-10-24T18:23:42.436Z,97576.3
2023-10-24T18:29:18.060Z,97571.3
2023-10-24T18:34:54.113Z,97563.8
2023-10-24T18:40:29.899Z,97564.4
2023-10-24T18:46:05.756Z,97557.2
2023-10-24T18:51:41.927Z,97548.1
2023-10-24T18:57:16.778Z,97547.6
2023-10-24T19:02:54.765Z,97546.7
2023-10-24T19:08:30.372Z,97549.3
2023-10-24T19:14:06.649Z,97544.5
2023-10-24T19:19:43.066Z,97551.5
2023-10-24T19:25:20.376Z,97561.1
2023-10-24T19:30:58.308Z,97561.8
2023-10-24T19:36:34.519Z,97559.9
2023-10-24T19:42:10.105Z,97559
2023-10-24T19:47:48.512Z,97568.9
2023-10-24T19:53:25.099Z,97571.5
2023-10-24T19:59:01.632Z,97568
2023-10-24T20:04:37.780Z,97564.9
2023-10-24T20:12:44.582Z,97564.3
2023-10-24T20:18:24.161Z,97564.6
2023-10-24T20:24:00.031Z,97559.6
2023-10-24T20:29:36.652Z,97570
2023-10-24T20:35:13.775Z,97571.7
2023-10-24T20:40:49.341Z,97573.3
2023-10-24T20:46:26.207Z,97577.3
2023-10-24T20:52:02.202Z,97575.3
2023-10-24T20:57:38.741Z,97578.3
2023-10-24T21:03:15.205Z,97588.5
2023-10-24T21:08:52.343Z,97579.5
2023-10-24T21:14:27.941Z,97582.5
2023-10-24T21:20:04.362Z,97579.9
2023-10-24T21:25:40.302Z,97570.9
2023-10-24T21:31:16.843Z,97566
2023-10-24T21:36:53.964Z,97554.1
2023-10-24T21:42:31.713Z,97550.6
2023-10-24T21:48:07.932Z,97544.4
2023-10-24T21:53:45.251Z,97541.1
2023-10-24T21:59:27.776Z,97529.4
2023-10-24T22:05:03.992Z,97530.1
2023-10-24T22:10:39.472Z,97522.2
2023-10-24T22:16:16.465Z,97525.1
2023-10-24T22:21:53.576Z,97528.7
2023-10-24T22:27:30.372Z,97533.8
2023-10-24T22:33:06.657Z,97535.7
2023-10-24T22:38:44.090Z,97537.3
2023-10-24T22:44:20.309Z,97525.3
2023-10-24T22:49:57.628Z,97518.7
2023-10-24T22:55:33.829Z,97514.4
2023-10-24T23:01:10.824Z,97514.2
2023-10-24T23:06:48.173Z,97518.1
2023-10-24T23:12:24.648Z,97519.8
2023-10-24T23:18:00.775Z,97509.7
2023-10-24T23:23:37.399Z,97517
2023-10-24T23:29:13.908Z,97511.2
2023-10-24T23:34:50.017Z,97516.2
2023-10-24T23:40:26.412Z,97517.1
2023-10-24T23:46:02.650Z,97514.5
2023-10-24T23:51:39.246Z,97504.5
2023-10-24T23:57:16.443Z,97515
